createdAt,value
2018-03-19T00:01:57.867Z,81.40
2018-03-19T00:04:26.026Z,80.40
2018-03-19T00:06:54.968Z,80.80
2018-03-19T00:09:23.040Z,80.80
2018-03-19T00:11:51.109Z,80.30
2018-03-19T00:14:19.176Z,80.50
2018-03-19T00:16:47.284Z,80.50
2018-03-19T00:19:15.357Z,80.10
2018-03-19T00:21:44.381Z,80.00
2018-03-19T00:24:12.476Z,79.50
2018-03-19T00:26:40.537Z,78.10
2018-03-19T00:29:08.600Z,79.30
2018-03-19T00:31:36.671Z,79.50
2018-03-19T00:34:05.504Z,79.00
2018-03-19T00:36:33.571Z,78.90
2018-03-19T00:39:01.639Z,79.10
2018-03-19T00:41:29.716Z,80.10
2018-03-19T00:43:58.557Z,79.40
2018-03-19T00:46:26.611Z,79.40
2018-03-19T00:48:54.745Z,81.30
2018-03-19T00:51:22.782Z,80.10
2018-03-19T00:53:50.840Z,80.00
2018-03-19T00:56:18.895Z,79.10
2018-03-19T00:58:46.962Z,78.60
2018-03-19T01:01:15.067Z,78.60
2018-03-19T01:03:43.119Z,78.20
2018-03-19T01:06:11.399Z,77.70
2018-03-19T01:08:39.482Z,78.30
2018-03-19T01:11:07.622Z,78.40
2018-03-19T01:13:35.668Z,80.00
2018-03-19T01:16:03.731Z,79.50
2018-03-19T01:18:31.792Z,79.20
2018-03-19T01:21:00.635Z,80.60
2018-03-19T01:23:28.692Z,80.60
2018-03-19T01:25:56.755Z,79.60
2018-03-19T01:28:25.591Z,79.00
2018-03-19T01:30:54.443Z,77.50
2018-03-19T01:33:22.512Z,77.40
2018-03-19T01:35:50.572Z,78.80
2018-03-19T01:38:18.647Z,79.20
2018-03-19T01:40:46.721Z,78.00
2018-03-19T01:43:14.836Z,78.60
2018-03-19T01:45:42.902Z,78.90
2018-03-19T01:48:10.974Z,78.10
2018-03-19T01:50:39.044Z,77.70
2018-03-19T01:53:07.119Z,77.10
2018-03-19T01:55:35.934Z,77.10
2018-03-19T01:58:04.012Z,77.10
2018-03-19T02:00:32.087Z,77.50
2018-03-19T02:03:00.947Z,77.20
2018-03-19T02:05:29.017Z,77.20
2018-03-19T02:07:57.077Z,78.50
2018-03-19T02:10:25.119Z,77.80
2018-03-19T02:12:53.956Z,78.80
2018-03-19T02:15:22.047Z,77.60
2018-03-19T02:17:50.095Z,77.90
2018-03-19T02:20:18.937Z,77.30
2018-03-19T02:22:47.002Z,77.30
2018-03-19T02:25:15.080Z,76.90
2018-03-19T02:27:43.144Z,77.00
2018-03-19T02:30:11.984Z,77.80
2018-03-19T02:32:40.045Z,77.80
2018-03-19T02:35:09.453Z,77.50
2018-03-19T02:37:37.479Z,77.50
2018-03-19T02:40:05.556Z,78.00
2018-03-19T02:42:33.613Z,78.40
2018-03-19T02:45:01.656Z,78.40
2018-03-19T02:47:29.765Z,77.70
2018-03-19T02:49:58.579Z,77.60
2018-03-19T02:52:26.755Z,77.60
2018-03-19T02:54:54.795Z,76.50
2018-03-19T02:57:22.864Z,77.40
2018-03-19T02:59:50.944Z,77.60
2018-03-19T03:02:19.003Z,78.20
2018-03-19T03:04:47.057Z,76.70
2018-03-19T03:07:15.114Z,76.90
2018-03-19T03:09:43.256Z,77.30
2018-03-19T03:12:11.312Z,76.80
2018-03-19T03:14:40.134Z,77.10
2018-03-19T03:17:08.199Z,77.00
2018-03-19T03:19:36.260Z,76.90
2018-03-19T03:22:04.344Z,76.70
2018-03-19T03:24:32.408Z,78.30
2018-03-19T03:27:00.479Z,78.40
2018-03-19T03:29:28.544Z,77.30
2018-03-19T03:31:56.621Z,77.50
2018-03-19T03:34:24.673Z,78.20
2018-03-19T03:36:52.731Z,78.80
2018-03-19T03:39:20.839Z,79.10
2018-03-19T03:41:48.909Z,79.40
2018-03-19T03:44:17.779Z,78.30
2018-03-19T03:46:45.852Z,77.80
2018-03-19T03:49:13.915Z,78.60
2018-03-19T03:51:42.742Z,77.70
2018-03-19T03:54:10.790Z,77.60
2018-03-19T03:56:39.636Z,78.80
2018-03-19T03:59:07.702Z,78.90
2018-03-19T04:01:35.771Z,77.60
2018-03-19T04:04:03.828Z,77.70
2018-03-19T04:06:31.896Z,78.40
2018-03-19T04:08:59.960Z,78.30
2018-03-19T04:11:28.017Z,78.70
2018-03-19T04:13:56.073Z,77.90
2018-03-19T04:16:26.525Z,77.00
2018-03-19T04:18:54.609Z,76.90
2018-03-19T04:21:22.663Z,77.70
2018-03-19T04:23:50.730Z,77.80
2018-03-19T04:26:18.784Z,77.20
2018-03-19T04:28:46.859Z,77.50
2018-03-19T04:31:14.932Z,77.30
2018-03-19T04:33:42.989Z,77.70
2018-03-19T04:36:11.657Z,77.40
2018-03-19T04:38:39.715Z,78.60
2018-03-19T04:41:07.766Z,78.10
2018-03-19T04:43:36.611Z,77.60
2018-03-19T04:46:04.663Z,77.60
2018-03-19T04:48:32.760Z,77.60
2018-03-19T04:51:00.840Z,77.20
2018-03-19T04:53:28.907Z,78.30
2018-03-19T04:55:56.963Z,77.60
2018-03-19T04:58:25.033Z,78.20
2018-03-19T05:00:53.084Z,77.70
2018-03-19T05:03:21.185Z,79.10
2018-03-19T05:05:49.772Z,78.30
2018-03-19T05:08:17.832Z,78.80
2018-03-19T05:10:45.884Z,78.10
2018-03-19T05:13:13.943Z,77.90
2018-03-19T05:15:41.994Z,77.50
2018-03-19T05:18:10.069Z,78.20
2018-03-19T05:20:38.137Z,78.10
2018-03-19T05:23:06.204Z,77.30
2018-03-19T05:25:35.013Z,77.50
2018-03-19T05:28:03.068Z,77.50
2018-03-19T05:30:31.128Z,78.20
2018-03-19T05:32:59.895Z,77.90
2018-03-19T05:35:27.961Z,76.90
2018-03-19T05:37:56.801Z,78.20
2018-03-19T05:40:24.860Z,78.10
2018-03-19T05:42:53.016Z,77.50
2018-03-19T05:45:21.062Z,78.40
2018-03-19T05:47:49.115Z,78.30
2018-03-19T05:50:17.158Z,77.70
2018-03-19T05:55:17.527Z,77.10
2018-03-19T05:57:45.600Z,77.70
2018-03-19T06:00:13.684Z,78.40
2018-03-19T06:02:41.804Z,78.00
2018-03-19T06:05:10.613Z,77.40
2018-03-19T06:07:38.662Z,77.40
2018-03-19T06:10:10.236Z,76.70
2018-03-19T06:12:39.089Z,77.80
2018-03-19T06:15:07.145Z,76.80
2018-03-19T06:17:35.190Z,77.50
2018-03-19T06:20:03.244Z,76.10
2018-03-19T06:22:31.300Z,77.30
2018-03-19T06:24:59.949Z,77.00
2018-03-19T06:27:28.064Z,77.70
2018-03-19T06:29:57.112Z,76.90
2018-03-19T06:32:25.221Z,76.90
2018-03-19T06:34:53.292Z,77.30
2018-03-19T06:37:21.361Z,77.00
2018-03-19T06:39:49.440Z,76.10
2018-03-19T06:42:18.256Z,77.50
2018-03-19T06:44:46.317Z,77.50
2018-03-19T06:47:14.420Z,76.20
2018-03-19T06:49:42.426Z,76.00
2018-03-19T06:52:10.485Z,76.20
2018-03-19T06:54:38.559Z,75.60
2018-03-19T06:57:06.628Z,76.90
2018-03-19T06:59:34.696Z,75.90
2018-03-19T07:02:02.739Z,76.00
2018-03-19T07:04:31.731Z,75.90
2018-03-19T07:07:00.370Z,77.10
2018-03-19T07:09:28.436Z,76.10
2018-03-19T07:11:56.498Z,76.20
2018-03-19T07:14:24.552Z,74.40
2018-03-19T07:16:52.626Z,74.40
2018-03-19T07:19:20.779Z,75.60
2018-03-19T07:21:49.596Z,74.20
2018-03-19T07:24:17.660Z,74.10
2018-03-19T07:26:45.784Z,74.50
2018-03-19T07:29:13.858Z,75.20
2018-03-19T07:31:41.911Z,74.00
2018-03-19T07:34:09.977Z,74.10
2018-03-19T07:36:38.024Z,73.80
2018-03-19T07:39:06.078Z,72.30
2018-03-19T07:41:34.207Z,73.10
2018-03-19T07:44:02.314Z,73.40
2018-03-19T07:46:30.313Z,72.70
2018-03-19T07:48:59.144Z,73.10
2018-03-19T07:51:27.198Z,73.10
2018-03-19T07:53:56.023Z,72.10
2018-03-19T07:56:24.081Z,72.10
2018-03-19T07:58:52.908Z,72.90
2018-03-19T08:01:20.990Z,72.90
2018-03-19T08:03:49.055Z,72.10
2018-03-19T08:06:17.876Z,71.90
2018-03-19T08:08:47.608Z,71.90
2018-03-19T08:11:15.660Z,71.90
2018-03-19T08:13:44.501Z,72.50
2018-03-19T08:16:12.564Z,72.40
2018-03-19T08:18:40.665Z,71.80
2018-03-19T08:21:08.695Z,70.20
2018-03-19T08:23:36.750Z,71.70
2018-03-19T08:26:04.809Z,70.00
2018-03-19T08:28:32.883Z,70.70
2018-03-19T08:31:00.923Z,71.40
2018-03-19T08:33:28.987Z,70.90
2018-03-19T08:35:57.032Z,70.90
2018-03-19T08:38:25.078Z,70.10
2018-03-19T08:40:53.127Z,69.40
2018-03-19T08:43:21.183Z,69.40
2018-03-19T08:45:49.252Z,69.30
2018-03-19T08:48:17.396Z,69.50
2018-03-19T08:50:45.435Z,70.30
2018-03-19T08:53:13.484Z,68.70
2018-03-19T08:55:41.541Z,69.20
2018-03-19T08:58:09.588Z,68.30
2018-03-19T09:00:37.652Z,67.70
2018-03-19T09:03:05.694Z,68.50
2018-03-19T09:05:33.755Z,68.30
2018-03-19T09:08:01.812Z,69.60
2018-03-19T09:10:29.884Z,69.90
2018-03-19T09:12:57.927Z,70.00
2018-03-19T09:15:25.988Z,67.40
2018-03-19T09:17:54.035Z,68.40
2018-03-19T09:20:22.089Z,69.70
2018-03-19T09:22:50.131Z,68.40
2018-03-19T09:25:18.204Z,68.80
2018-03-19T09:27:46.268Z,67.80
2018-03-19T09:30:14.319Z,67.50
2018-03-19T09:32:42.381Z,66.90
2018-03-19T09:35:10.485Z,67.70
2018-03-19T09:37:38.515Z,66.90
2018-03-19T09:40:06.580Z,65.60
2018-03-19T09:42:34.640Z,66.00
2018-03-19T09:45:03.169Z,66.00
2018-03-19T09:47:31.244Z,65.60
2018-03-19T09:49:59.310Z,64.50
2018-03-19T09:52:27.348Z,65.80
2018-03-19T09:54:55.417Z,67.40
2018-03-19T09:57:23.511Z,67.00
2018-03-19T09:59:51.538Z,68.40
2018-03-19T10:02:19.574Z,68.60
2018-03-19T10:04:47.636Z,67.10
2018-03-19T10:07:15.683Z,65.80
2018-03-19T10:09:43.740Z,66.40
2018-03-19T10:12:11.844Z,65.90
2018-03-19T10:14:39.907Z,66.40
2018-03-19T10:17:07.943Z,66.00
2018-03-19T10:19:36.010Z,66.00
2018-03-19T10:22:04.849Z,66.50
2018-03-19T10:24:32.911Z,66.50
2018-03-19T10:27:00.977Z,65.80
2018-03-19T10:29:29.025Z,65.00
2018-03-19T10:31:57.089Z,65.70
2018-03-19T10:34:25.204Z,64.90
2018-03-19T10:36:53.203Z,66.10
2018-03-19T10:39:22.017Z,65.70
2018-03-19T10:41:50.862Z,67.80
2018-03-19T10:44:18.907Z,67.80
2018-03-19T10:46:46.969Z,67.80
2018-03-19T10:49:15.011Z,64.20
2018-03-19T10:51:43.084Z,65.40
2018-03-19T10:54:11.143Z,64.80
2018-03-19T10:56:39.209Z,64.90
2018-03-19T10:59:08.022Z,68.80
2018-03-19T11:01:41.798Z,68.70
2018-03-19T11:04:10.763Z,69.60
2018-03-19T11:06:44.369Z,70.00
2018-03-19T11:09:33.150Z,71.10
2018-03-19T11:12:01.275Z,69.70
2018-03-19T11:14:30.026Z,72.60
2018-03-19T11:16:58.071Z,72.60
2018-03-19T11:19:26.116Z,73.20
2018-03-19T11:21:54.180Z,72.20
2018-03-19T11:24:22.236Z,71.20
2018-03-19T11:26:51.066Z,70.00
2018-03-19T11:29:19.098Z,70.00
2018-03-19T11:31:47.151Z,70.60
2018-03-19T11:34:15.196Z,70.80
2018-03-19T11:36:43.260Z,71.20
2018-03-19T11:39:11.302Z,71.80
2018-03-19T11:41:39.361Z,68.90
2018-03-19T11:44:07.420Z,68.70
2018-03-19T11:46:36.249Z,69.60
2018-03-19T11:49:04.296Z,69.60
2018-03-19T11:51:33.118Z,69.60
2018-03-19T11:54:01.173Z,69.60
2018-03-19T11:56:29.288Z,70.10
2018-03-19T11:58:57.332Z,70.70
2018-03-19T12:01:25.489Z,69.30
2018-03-19T12:03:53.533Z,68.50
2018-03-19T12:06:21.589Z,68.90
2018-03-19T12:08:49.641Z,69.70
2018-03-19T12:11:17.698Z,69.80
2018-03-19T12:13:45.752Z,70.60
2018-03-19T12:16:13.804Z,70.10
2018-03-19T12:18:41.864Z,70.80
2018-03-19T12:21:09.919Z,70.60
2018-03-19T12:23:37.992Z,70.60
2018-03-19T12:26:06.816Z,70.40
2018-03-19T12:28:34.880Z,70.40
2018-03-19T12:31:03.713Z,70.00
2018-03-19T12:33:31.796Z,70.00
2018-03-19T12:35:59.892Z,68.40
2018-03-19T12:38:27.934Z,67.60
2018-03-19T12:40:55.996Z,64.10
2018-03-19T12:43:24.428Z,65.20
2018-03-19T12:45:53.208Z,62.90
2018-03-19T12:48:21.279Z,62.90
2018-03-19T12:50:49.325Z,63.70
2018-03-19T12:53:17.461Z,62.00
2018-03-19T12:55:45.515Z,62.50
2018-03-19T12:58:13.562Z,62.80
2018-03-19T13:00:41.637Z,60.50
2018-03-19T13:03:09.701Z,61.10
2018-03-19T13:05:37.772Z,60.60
2018-03-19T13:08:06.575Z,59.80
2018-03-19T13:10:34.639Z,59.80
2018-03-19T13:13:03.477Z,61.30
2018-03-19T13:15:31.532Z,61.20
2018-03-19T13:17:59.588Z,61.80
2018-03-19T13:20:27.642Z,62.60
2018-03-19T13:22:55.700Z,62.80
2018-03-19T13:25:23.743Z,62.80
2018-03-19T13:27:51.795Z,62.70
2018-03-19T13:30:19.843Z,64.20
2018-03-19T13:32:47.904Z,63.40
2018-03-19T13:35:16.724Z,65.30
2018-03-19T13:37:44.788Z,65.30
2018-03-19T13:40:13.003Z,66.40
2018-03-19T13:42:41.047Z,64.40
2018-03-19T13:45:09.100Z,65.10
2018-03-19T13:47:37.174Z,64.30
2018-03-19T13:50:05.225Z,64.20
2018-03-19T13:52:33.278Z,64.00
2018-03-19T13:55:01.329Z,63.30
2018-03-19T13:57:29.377Z,64.10
2018-03-19T13:59:57.442Z,64.50
2018-03-19T14:02:26.265Z,64.70
2018-03-19T14:04:54.311Z,64.70
2018-03-19T14:07:22.400Z,64.10
2018-03-19T14:09:50.460Z,65.40
2018-03-19T14:12:18.493Z,65.40
2018-03-19T14:14:46.564Z,63.90
2018-03-19T14:17:15.393Z,63.30
2018-03-19T14:19:43.447Z,63.90
2018-03-19T14:22:12.250Z,63.20
2018-03-19T14:24:41.071Z,63.00
2018-03-19T14:27:09.133Z,62.90
2018-03-19T14:29:37.962Z,64.10
2018-03-19T14:32:06.002Z,64.10
2018-03-19T14:34:34.061Z,64.00
2018-03-19T14:37:02.103Z,64.60
2018-03-19T14:39:30.207Z,66.00
2018-03-19T14:41:58.325Z,65.90
2018-03-19T14:44:26.376Z,66.60
2018-03-19T14:46:54.439Z,64.60
2018-03-19T14:49:22.519Z,66.10
2018-03-19T14:51:50.605Z,65.10
2018-03-19T14:54:18.649Z,65.70
2018-03-19T14:56:46.790Z,66.10
2018-03-19T14:59:14.847Z,65.80
2018-03-19T15:01:43.668Z,66.30
2018-03-19T15:04:11.772Z,66.20
2018-03-19T15:06:39.831Z,66.90
2018-03-19T15:09:07.881Z,66.40
2018-03-19T15:11:35.934Z,66.30
2018-03-19T15:14:03.978Z,66.00
2018-03-19T15:16:32.139Z,66.60
2018-03-19T15:19:00.177Z,66.00
2018-03-19T15:21:28.232Z,66.20
2018-03-19T15:23:56.271Z,67.30
2018-03-19T15:26:24.334Z,68.10
2018-03-19T15:28:52.384Z,67.30
2018-03-19T15:31:20.567Z,67.20
2018-03-19T15:33:49.372Z,67.10
2018-03-19T15:36:17.428Z,67.00
2018-03-19T15:38:46.243Z,69.30
2018-03-19T15:41:14.406Z,69.30
2018-03-19T15:43:43.222Z,68.80
2018-03-19T15:46:12.045Z,68.20
2018-03-19T15:48:40.101Z,68.20
2018-03-19T15:51:08.941Z,68.80
2018-03-19T15:53:37.753Z,69.00
2018-03-19T15:56:05.801Z,69.00
2018-03-19T15:58:33.855Z,69.00
2018-03-19T16:01:01.903Z,69.50
2018-03-19T16:03:29.968Z,69.00
2018-03-19T16:05:58.039Z,69.40
2018-03-19T16:08:26.178Z,69.20
2018-03-19T16:10:54.216Z,69.30
2018-03-19T16:13:22.267Z,69.00
2018-03-19T16:15:51.096Z,69.80
2018-03-19T16:18:19.179Z,69.70
2018-03-19T16:20:48.076Z,70.00
2018-03-19T16:23:17.084Z,70.30
2018-03-19T16:25:45.171Z,69.60
2018-03-19T16:28:13.223Z,71.50
2018-03-19T16:30:42.060Z,71.10
2018-03-19T16:33:10.144Z,71.10
2018-03-19T16:35:38.181Z,71.60
2018-03-19T16:38:06.230Z,72.10
2018-03-19T16:40:34.280Z,70.70
2018-03-19T16:43:02.331Z,70.60
2018-03-19T16:45:30.428Z,70.20
2018-03-19T16:47:59.076Z,70.50
2018-03-19T16:50:27.137Z,70.90
2018-03-19T16:52:55.216Z,70.70
2018-03-19T16:55:23.297Z,70.80
2018-03-19T16:57:51.354Z,70.40
2018-03-19T17:00:20.178Z,71.00
2018-03-19T17:02:49.016Z,70.70
2018-03-19T17:05:17.112Z,70.70
2018-03-19T17:07:45.161Z,70.80
2018-03-19T17:10:13.208Z,70.20
2018-03-19T17:12:42.203Z,71.50
2018-03-19T17:15:10.336Z,71.50
2018-03-19T17:17:38.404Z,70.80
2018-03-19T17:20:06.456Z,70.60
2018-03-19T17:22:34.513Z,71.80
2018-03-19T17:25:02.572Z,71.80
2018-03-19T17:27:30.624Z,71.60
2018-03-19T17:29:59.967Z,72.60
2018-03-19T17:32:28.094Z,72.60
2018-03-19T17:34:56.152Z,72.40
2018-03-19T17:37:24.248Z,72.20
2018-03-19T17:39:52.307Z,72.90
2018-03-19T17:42:20.366Z,72.60
2018-03-19T17:44:49.178Z,72.60
2018-03-19T17:47:18.007Z,72.90
2018-03-19T17:49:46.074Z,72.80
2018-03-19T17:52:14.164Z,73.80
2018-03-19T17:54:43.053Z,73.10
2018-03-19T17:57:11.112Z,73.50
2018-03-19T17:59:39.940Z,72.80
2018-03-19T18:02:08.009Z,72.40
2018-03-19T18:04:36.081Z,71.90
2018-03-19T18:07:04.169Z,72.30
2018-03-19T18:09:32.192Z,72.50
2018-03-19T18:12:01.035Z,72.40
2018-03-19T18:14:29.944Z,72.70
2018-03-19T18:16:57.962Z,72.70
2018-03-19T18:19:26.027Z,72.50
2018-03-19T18:21:54.074Z,73.50
2018-03-19T18:24:22.166Z,73.50
2018-03-19T18:26:51.091Z,72.80
2018-03-19T18:29:19.139Z,72.70
2018-03-19T18:31:47.204Z,73.20
2018-03-19T18:34:15.319Z,72.90
2018-03-19T18:36:43.311Z,73.30
2018-03-19T18:39:12.139Z,73.30
2018-03-19T18:41:40.184Z,73.30
2018-03-19T18:44:08.261Z,73.50
2018-03-19T18:46:36.311Z,74.30
2018-03-19T18:49:04.452Z,73.50
2018-03-19T18:51:36.223Z,74.70
2018-03-19T18:54:04.280Z,73.90
2018-03-19T18:56:32.390Z,73.40
2018-03-19T18:59:00.452Z,74.00
2018-03-19T19:01:28.498Z,73.80
2018-03-19T19:03:56.560Z,75.00
2018-03-19T19:06:24.602Z,74.10
2018-03-19T19:08:52.668Z,73.50
2018-03-19T19:11:20.707Z,73.10
2018-03-19T19:13:49.557Z,72.90
2018-03-19T19:16:17.606Z,72.90
2018-03-19T19:18:45.650Z,73.90
2018-03-19T19:21:14.470Z,74.10
2018-03-19T19:23:42.515Z,74.00
2018-03-19T19:26:10.573Z,73.90
2018-03-19T19:28:38.627Z,74.00
2018-03-19T19:31:06.694Z,73.40
2018-03-19T19:33:34.759Z,74.30
2018-03-19T19:36:03.578Z,74.60
2018-03-19T19:38:31.636Z,74.50
2018-03-19T19:40:59.698Z,74.70
2018-03-19T19:43:27.756Z,74.00
2018-03-19T19:45:55.817Z,73.90
2018-03-19T19:48:23.868Z,74.60
2018-03-19T19:50:51.928Z,74.90
2018-03-19T19:53:19.988Z,75.20
2018-03-19T19:55:48.064Z,74.20
2018-03-19T19:58:16.110Z,75.00
2018-03-19T20:00:44.952Z,76.10
2018-03-19T20:03:13.763Z,76.30
2018-03-19T20:05:41.896Z,76.30
2018-03-19T20:08:10.725Z,76.40
2018-03-19T20:10:38.854Z,76.40
2018-03-19T20:13:06.912Z,76.70
2018-03-19T20:15:34.993Z,76.50
2018-03-19T20:18:03.064Z,76.60
2018-03-19T20:20:31.136Z,76.50
2018-03-19T20:22:59.187Z,76.80
2018-03-19T20:25:27.257Z,76.90
2018-03-19T20:27:55.303Z,76.40
2018-03-19T20:30:23.369Z,76.60
2018-03-19T20:32:51.445Z,76.70
2018-03-19T20:35:20.250Z,76.20
2018-03-19T20:37:48.310Z,76.20
2018-03-19T20:40:16.364Z,75.70
2018-03-19T20:42:44.416Z,75.50
2018-03-19T20:45:12.488Z,75.90
2018-03-19T20:47:40.583Z,75.80
2018-03-19T20:50:08.860Z,74.80
2018-03-19T20:52:36.916Z,74.60
2018-03-19T20:55:05.739Z,76.20
2018-03-19T20:57:33.783Z,76.10
2018-03-19T21:00:01.857Z,76.80
2018-03-19T21:02:29.921Z,77.20
2018-03-19T21:04:57.976Z,77.50
2018-03-19T21:07:26.032Z,76.80
2018-03-19T21:09:54.096Z,76.90
2018-03-19T21:12:22.147Z,77.00
2018-03-19T21:14:50.221Z,76.50
2018-03-19T21:17:18.271Z,75.40
2018-03-19T21:19:46.323Z,75.00
2018-03-19T21:22:14.389Z,75.20
2018-03-19T21:24:42.446Z,76.10
2018-03-19T21:27:10.523Z,74.90
2018-03-19T21:29:38.582Z,75.40
2018-03-19T21:32:07.411Z,75.00
2018-03-19T21:34:35.476Z,75.00
2018-03-19T21:37:04.325Z,75.30
2018-03-19T21:39:32.433Z,75.30
2018-03-19T21:42:01.042Z,75.60
2018-03-19T21:44:29.109Z,76.10
2018-03-19T21:46:57.260Z,76.60
2018-03-19T21:49:25.873Z,76.20
2018-03-19T21:51:53.931Z,75.40
2018-03-19T21:54:21.992Z,75.80
2018-03-19T21:56:51.492Z,74.90
2018-03-19T21:59:20.401Z,74.80
2018-03-19T22:01:48.538Z,73.10
2018-03-19T22:04:16.609Z,72.40
2018-03-19T22:06:44.671Z,72.20
2018-03-19T22:09:13.499Z,70.90
2018-03-19T22:11:41.574Z,71.30
2018-03-19T22:14:09.672Z,70.60
2018-03-19T22:16:37.829Z,70.50
2018-03-19T22:19:06.700Z,71.40
2018-03-19T22:21:34.718Z,71.40
2018-03-19T22:24:02.824Z,70.80
2018-03-19T22:26:31.018Z,70.00
2018-03-19T22:28:59.087Z,70.50
2018-03-19T22:31:27.147Z,70.30
2018-03-19T22:33:55.976Z,71.00
2018-03-19T22:36:24.043Z,70.90
2018-03-19T22:38:52.191Z,71.30
2018-03-19T22:41:20.262Z,71.50
2018-03-19T22:43:48.335Z,72.60
2018-03-19T22:46:16.408Z,72.30
2018-03-19T22:48:44.457Z,72.00
2018-03-19T22:51:12.569Z,71.70
2018-03-19T22:53:40.956Z,71.00
2018-03-19T22:56:09.065Z,71.20
2018-03-19T22:58:37.138Z,71.10
2018-03-19T23:01:05.196Z,71.10
2018-03-19T23:03:33.271Z,70.90
2018-03-19T23:06:01.328Z,71.10
2018-03-19T23:08:30.173Z,70.40
2018-03-19T23:10:58.240Z,70.40
2018-03-19T23:13:27.081Z,70.90
2018-03-19T23:15:55.703Z,70.90
2018-03-19T23:18:23.816Z,70.40
2018-03-19T23:20:51.849Z,70.00
2018-03-19T23:23:19.905Z,70.00
2018-03-19T23:25:47.950Z,70.00
2018-03-19T23:28:16.785Z,69.70
2018-03-19T23:30:44.856Z,69.70
2018-03-19T23:33:12.958Z,69.10
2018-03-19T23:35:41.015Z,68.00
2018-03-19T23:38:10.644Z,67.80
2018-03-19T23:40:38.760Z,67.00
2018-03-19T23:43:06.802Z,67.30
2018-03-19T23:45:34.883Z,67.30
2018-03-19T23:48:03.691Z,67.70
2018-03-19T23:50:31.758Z,67.70
2018-03-19T23:53:00.776Z,68.40
2018-03-19T23:55:30.129Z,68.40
2018-03-19T23:57:58.211Z,69.00
